Time;durP1;ratioP1;P1;durP2;ratioP2;P2;SDS_P1;SDS_P2;PMS_P1;PMS_P2;Temp;Humidity;BMP_temperature;BMP_pressure;BME280_temperature;BME280_humidity;BME280_pressure;Samples;Min_cycle;Max_cycle;Signal;HPM_P1;HPM_P2
2022/04/18 00:00:58;;;;;;;12.25;9.40;;;;;;;;;;5144054;27;20095;-68
2022/04/18 00:03:24;;;;;;;11.35;9.13;;;;;;;;;;5125134;27;20172;-68
2022/04/18 00:05:49;;;;;;;10.70;9.60;;;;;;;;;;5111246;27;20381;-67
2022/04/18 00:08:14;;;;;;;14.45;9.65;;;;;;;;;;5107047;27;20495;-69
2022/04/18 00:10:40;;;;;;;10.82;9.70;;;;;;;;;;5104814;27;20031;-68
2022/04/18 00:13:05;;;;;;;11.55;9.25;;;;;;;;;;5100800;27;20033;-68
2022/04/18 00:15:30;;;;;;;12.82;9.73;;;;;;;;;;5086030;27;20095;-69
2022/04/18 00:17:55;;;;;;;12.73;10.40;;;;;;;;;;5089862;27;20080;-69
2022/04/18 00:20:21;;;;;;;11.93;10.10;;;;;;;;;;5105758;27;20039;-68
2022/04/18 00:22:46;;;;;;;11.25;10.05;;;;;;;;;;5104246;27;20019;-69
2022/04/18 00:25:12;;;;;;;10.95;9.80;;;;;;;;;;5141448;27;20449;-68
2022/04/18 00:27:38;;;;;;;10.70;9.40;;;;;;;;;;5113702;27;20409;-68
2022/04/18 00:30:04;;;;;;;10.95;9.80;;;;;;;;;;5115045;27;20027;-68
2022/04/18 00:32:29;;;;;;;11.60;10.40;;;;;;;;;;5098938;27;20022;-67
2022/04/18 00:34:54;;;;;;;12.13;10.40;;;;;;;;;;5136870;27;20120;-67
2022/04/18 00:37:19;;;;;;;14.93;10.90;;;;;;;;;;5124476;27;20113;-69
2022/04/18 00:39:45;;;;;;;12.25;10.70;;;;;;;;;;5125540;27;20319;-69
2022/04/18 00:42:10;;;;;;;12.75;10.23;;;;;;;;;;5121081;27;20126;-68
2022/04/18 00:44:35;;;;;;;14.65;10.73;;;;;;;;;;5142124;27;20072;-69
2022/04/18 00:47:00;;;;;;;12.55;10.40;;;;;;;;;;5142278;27;20725;-70
2022/04/18 00:49:26;;;;;;;13.80;11.00;;;;;;;;;;5124962;27;20026;-68
2022/04/18 00:51:52;;;;;;;14.02;11.13;;;;;;;;;;5107241;27;20031;-68
2022/04/18 00:54:17;;;;;;;14.00;11.75;;;;;;;;;;5125003;27;20035;-69
2022/04/18 00:56:43;;;;;;;13.30;11.30;;;;;;;;;;5104150;27;20050;-69
2022/04/18 00:59:10;;;;;;;13.07;11.70;;;;;;;;;;5108473;27;20030;-68
2022/04/18 01:01:37;;;;;;;13.07;11.63;;;;;;;;;;5122547;27;20022;-67
2022/04/18 01:04:03;;;;;;;13.18;11.85;;;;;;;;;;5112579;27;20075;-68
2022/04/18 01:06:28;;;;;;;13.02;11.40;;;;;;;;;;5143976;27;20026;-68
2022/04/18 01:08:54;;;;;;;11.80;10.55;;;;;;;;;;5108462;27;20332;-68
2022/04/18 01:11:19;;;;;;;12.93;10.98;;;;;;;;;;5142906;27;20054;-69
2022/04/18 01:13:45;;;;;;;14.18;12.52;;;;;;;;;;5123110;27;20444;-68
2022/04/18 01:16:11;;;;;;;13.50;11.55;;;;;;;;;;5133569;27;20023;-68
2022/04/18 01:18:38;;;;;;;13.02;11.63;;;;;;;;;;5118567;27;20374;-67
2022/04/18 01:21:04;;;;;;;12.65;11.13;;;;;;;;;;5144352;27;20029;-69
2022/04/18 01:23:30;;;;;;;14.38;11.60;;;;;;;;;;5122723;27;20354;-68
2022/04/18 01:31:23;;;;;;;15.35;12.85;;;;;;;;;;5129343;27;20044;-69
2022/04/18 01:33:49;;;;;;;12.00;10.77;;;;;;;;;;5120650;27;20510;-69
2022/04/18 01:36:14;;;;;;;15.23;12.25;;;;;;;;;;5145225;27;20041;-69
2022/04/18 01:38:39;;;;;;;15.32;11.80;;;;;;;;;;5123805;27;20033;-69
2022/04/18 01:41:05;;;;;;;12.98;11.60;;;;;;;;;;5144592;27;20369;-68
2022/04/18 01:43:31;;;;;;;16.30;12.10;;;;;;;;;;5106122;27;20105;-67
2022/04/18 01:45:56;;;;;;;14.40;12.63;;;;;;;;;;5126457;27;20113;-68
2022/04/18 01:48:21;;;;;;;15.07;12.60;;;;;;;;;;5122308;27;20457;-68
2022/04/18 01:50:46;;;;;;;16.52;12.82;;;;;;;;;;5124611;27;20451;-67
2022/04/18 01:53:12;;;;;;;14.30;12.80;;;;;;;;;;5125338;27;20521;-69
2022/04/18 01:55:37;;;;;;;13.73;11.85;;;;;;;;;;5143191;27;20384;-69
2022/04/18 01:58:05;;;;;;;14.52;12.05;;;;;;;;;;5148317;27;20027;-67
2022/04/18 02:00:31;;;;;;;13.98;12.02;;;;;;;;;;5124216;27;20099;-68
2022/04/18 02:02:56;;;;;;;15.13;12.15;;;;;;;;;;5120224;27;20041;-69
2022/04/18 02:05:22;;;;;;;13.70;12.27;;;;;;;;;;5143976;27;20113;-69
2022/04/18 02:07:47;;;;;;;13.15;11.65;;;;;;;;;;5139423;27;20461;-67
2022/04/18 02:10:13;;;;;;;13.75;11.77;;;;;;;;;;5144174;27;20408;-68
2022/04/18 02:12:38;;;;;;;13.82;12.23;;;;;;;;;;5137280;27;20429;-67
2022/04/18 02:15:03;;;;;;;13.60;12.10;;;;;;;;;;5125734;27;20023;-68
2022/04/18 02:17:32;;;;;;;14.25;12.60;;;;;;;;;;5140757;27;20030;-69
2022/04/18 02:19:58;;;;;;;13.07;11.88;;;;;;;;;;5108538;27;20087;-70
2022/04/18 02:22:24;;;;;;;13.43;11.55;;;;;;;;;;5123071;27;20107;-70
2022/04/18 02:24:49;;;;;;;13.82;11.85;;;;;;;;;;5142410;27;20297;-68
2022/04/18 02:27:15;;;;;;;11.98;10.75;;;;;;;;;;5141548;27;20489;-67
2022/04/18 02:29:40;;;;;;;12.40;10.82;;;;;;;;;;5110005;27;20065;-68
2022/04/18 02:34:50;;;;;;;12.63;11.32;;;;;;;;;;5122314;27;20329;-67
2022/04/18 02:37:15;;;;;;;13.07;11.27;;;;;;;;;;5104436;27;20054;-68
2022/04/18 02:39:41;;;;;;;12.82;10.98;;;;;;;;;;5102958;27;20070;-69
2022/04/18 02:42:06;;;;;;;12.10;10.80;;;;;;;;;;5119727;27;20470;-68
2022/04/18 02:44:32;;;;;;;12.20;10.90;;;;;;;;;;5121044;27;20492;-70
2022/04/18 02:46:57;;;;;;;12.13;10.90;;;;;;;;;;5099183;27;20736;-69
2022/04/18 02:49:22;;;;;;;12.93;10.98;;;;;;;;;;5123002;27;20072;-69
2022/04/18 02:51:48;;;;;;;12.43;11.13;;;;;;;;;;5102704;27;20133;-69
2022/04/18 02:54:13;;;;;;;12.45;11.15;;;;;;;;;;5104266;27;20027;-68
2022/04/18 02:56:38;;;;;;;13.30;10.75;;;;;;;;;;5126379;27;20034;-69
2022/04/18 02:59:03;;;;;;;12.77;10.13;;;;;;;;;;5101086;27;20437;-67
2022/04/18 03:01:29;;;;;;;14.00;11.02;;;;;;;;;;5104074;27;20379;-68
2022/04/18 03:03:54;;;;;;;13.05;10.35;;;;;;;;;;5101398;27;20050;-68
2022/04/18 03:06:19;;;;;;;12.18;10.80;;;;;;;;;;5104518;27;20137;-67
2022/04/18 03:08:44;;;;;;;12.48;11.18;;;;;;;;;;5120656;27;20532;-68
2022/04/18 03:11:10;;;;;;;11.75;10.25;;;;;;;;;;5102500;27;20027;-68
2022/04/18 03:13:36;;;;;;;12.15;10.30;;;;;;;;;;5099932;27;20031;-68
2022/04/18 03:16:03;;;;;;;13.32;10.95;;;;;;;;;;5122447;27;20045;-68
2022/04/18 03:18:28;;;;;;;12.07;10.18;;;;;;;;;;5126136;27;20370;-68
2022/04/18 03:20:54;;;;;;;13.82;10.30;;;;;;;;;;5145666;27;20026;-68
2022/04/18 03:23:19;;;;;;;11.38;10.18;;;;;;;;;;5147607;27;20447;-68
2022/04/18 03:25:44;;;;;;;11.25;10.05;;;;;;;;;;5127210;27;20108;-68
2022/04/18 03:28:10;;;;;;;11.52;10.38;;;;;;;;;;5122110;27;20034;-69
2022/04/18 03:30:36;;;;;;;11.88;9.60;;;;;;;;;;5146904;27;20018;-67
2022/04/18 03:33:01;;;;;;;11.05;9.70;;;;;;;;;;5126925;27;20026;-70
2022/04/18 03:35:27;;;;;;;10.98;8.85;;;;;;;;;;5128813;27;20018;-68
2022/04/18 03:40:39;;;;;;;10.48;9.23;;;;;;;;;;5146994;27;20393;-68
2022/04/18 03:43:05;;;;;;;12.10;9.25;;;;;;;;;;5103890;27;20019;-68
2022/04/18 03:45:30;;;;;;;10.68;9.00;;;;;;;;;;5145591;27;20022;-68
2022/04/18 03:47:55;;;;;;;10.10;9.10;;;;;;;;;;5144479;27;20018;-68
2022/04/18 03:50:20;;;;;;;11.55;8.75;;;;;;;;;;5130260;27;20034;-69
2022/04/18 03:52:46;;;;;;;9.57;8.57;;;;;;;;;;5141074;27;20031;-68
2022/04/18 03:55:11;;;;;;;10.10;8.70;;;;;;;;;;5110900;27;20492;-69
2022/04/18 03:57:37;;;;;;;10.10;9.02;;;;;;;;;;5137596;27;20059;-67
2022/04/18 04:00:04;;;;;;;11.25;9.15;;;;;;;;;;5124905;27;20049;-67
2022/04/18 04:02:30;;;;;;;9.18;8.15;;;;;;;;;;5142669;27;20067;-69
2022/04/18 04:04:55;;;;;;;10.07;8.82;;;;;;;;;;5142673;27;20026;-69
2022/04/18 04:07:20;;;;;;;10.32;8.38;;;;;;;;;;5143797;27;20030;-69
2022/04/18 04:09:46;;;;;;;9.40;8.07;;;;;;;;;;5108070;27;20366;-69
2022/04/18 04:12:11;;;;;;;9.85;8.63;;;;;;;;;;5141502;27;20402;-69
2022/04/18 04:14:37;;;;;;;10.27;9.15;;;;;;;;;;5141471;27;20556;-68
2022/04/18 04:17:02;;;;;;;9.23;7.70;;;;;;;;;;5140778;27;20027;-68
2022/04/18 04:19:28;;;;;;;8.60;7.70;;;;;;;;;;5143828;27;20022;-67
2022/04/18 04:21:53;;;;;;;8.38;6.93;;;;;;;;;;5140078;27;20670;-67
2022/04/18 04:24:20;;;;;;;8.40;7.28;;;;;;;;;;5108525;27;20019;-67
2022/04/18 04:26:45;;;;;;;8.23;7.25;;;;;;;;;;5119127;27;20378;-67
2022/04/18 04:29:11;;;;;;;8.73;7.40;;;;;;;;;;5122153;27;20034;-68
2022/04/18 04:31:37;;;;;;;9.38;7.65;;;;;;;;;;5143013;27;20026;-69
2022/04/18 04:34:02;;;;;;;10.00;7.90;;;;;;;;;;5122054;27;20022;-68
2022/04/18 04:36:27;;;;;;;9.73;7.55;;;;;;;;;;5146019;27;20046;-70
2022/04/18 04:38:53;;;;;;;9.10;8.15;;;;;;;;;;5140121;27;20022;-69
2022/04/18 04:41:18;;;;;;;9.80;7.60;;;;;;;;;;5089385;27;20122;-68
2022/04/18 04:43:44;;;;;;;9.57;8.10;;;;;;;;;;5101117;27;20050;-68
2022/04/18 04:46:10;;;;;;;10.32;8.73;;;;;;;;;;5091277;27;20496;-68
2022/04/18 04:48:35;;;;;;;9.10;7.32;;;;;;;;;;5107451;27;20038;-69
2022/04/18 04:51:00;;;;;;;10.13;8.45;;;;;;;;;;5104208;27;20015;-68
2022/04/18 04:53:26;;;;;;;9.93;8.20;;;;;;;;;;5123114;27;20538;-68
2022/04/18 04:55:51;;;;;;;9.13;8.07;;;;;;;;;;5123472;27;20080;-67
2022/04/18 04:58:16;;;;;;;8.77;7.85;;;;;;;;;;5082055;27;20427;-68
2022/04/18 05:00:42;;;;;;;8.98;8.00;;;;;;;;;;5125341;27;20019;-69
2022/04/18 05:03:08;;;;;;;8.63;7.72;;;;;;;;;;5118942;27;20157;-69
2022/04/18 05:05:33;;;;;;;9.70;8.35;;;;;;;;;;5124610;27;20446;-67
2022/04/18 05:07:59;;;;;;;8.68;7.43;;;;;;;;;;5119695;27;20030;-68
2022/04/18 05:10:24;;;;;;;9.55;8.10;;;;;;;;;;5106914;27;20375;-68
2022/04/18 05:12:49;;;;;;;9.85;7.07;;;;;;;;;;5118022;27;20431;-67
2022/04/18 05:15:15;;;;;;;8.75;7.38;;;;;;;;;;5125236;27;20072;-68
2022/04/18 05:17:40;;;;;;;8.52;7.47;;;;;;;;;;5102011;27;20019;-69
2022/04/18 05:20:06;;;;;;;8.80;7.35;;;;;;;;;;5088126;27;20462;-68
2022/04/18 05:22:31;;;;;;;10.32;7.88;;;;;;;;;;5106978;27;20023;-68
2022/04/18 05:24:57;;;;;;;8.60;7.05;;;;;;;;;;5124205;27;20389;-69
2022/04/18 05:27:23;;;;;;;8.27;7.05;;;;;;;;;;5102168;27;20443;-68
2022/04/18 05:29:49;;;;;;;8.38;7.10;;;;;;;;;;5086636;27;20027;-68
2022/04/18 05:32:14;;;;;;;9.73;7.85;;;;;;;;;;5091725;27;20023;-68
2022/04/18 05:34:40;;;;;;;8.77;7.82;;;;;;;;;;5145831;27;20045;-68
2022/04/18 05:37:05;;;;;;;7.63;6.82;;;;;;;;;;5107638;27;20618;-68
2022/04/18 05:39:30;;;;;;;7.75;6.53;;;;;;;;;;5126128;27;20057;-67
2022/04/18 05:41:59;;;;;;;10.18;6.75;;;;;;;;;;5119308;27;20010;-68
2022/04/18 05:44:24;;;;;;;9.40;6.82;;;;;;;;;;5142048;27;20018;-68
2022/04/18 05:46:50;;;;;;;7.38;6.55;;;;;;;;;;5136071;27;20453;-68
2022/04/18 05:49:16;;;;;;;8.55;6.72;;;;;;;;;;5106204;27;20475;-69
2022/04/18 05:51:41;;;;;;;6.80;5.95;;;;;;;;;;5104802;27;20441;-68
2022/04/18 05:54:06;;;;;;;8.10;6.43;;;;;;;;;;5104191;27;20031;-68
2022/04/18 05:56:32;;;;;;;8.77;7.03;;;;;;;;;;5085439;27;20107;-68
2022/04/18 05:58:57;;;;;;;9.90;6.57;;;;;;;;;;5099769;27;20122;-68
2022/04/18 06:01:23;;;;;;;9.43;6.72;;;;;;;;;;5088044;27;20139;-69
2022/04/18 06:03:49;;;;;;;5.95;5.20;;;;;;;;;;5102739;27;20146;-69
2022/04/18 06:06:14;;;;;;;6.50;5.00;;;;;;;;;;5105281;27;20069;-69
2022/04/18 06:08:39;;;;;;;5.13;4.63;;;;;;;;;;5122503;27;20062;-68
2022/04/18 06:11:06;;;;;;;6.20;4.10;;;;;;;;;;5121089;27;20019;-69
2022/04/18 06:13:31;;;;;;;6.30;4.28;;;;;;;;;;5116653;27;20353;-67
2022/04/18 06:15:56;;;;;;;4.75;4.20;;;;;;;;;;5120785;27;20028;-68
2022/04/18 06:18:22;;;;;;;4.65;4.15;;;;;;;;;;5119699;27;20076;-68
2022/04/18 06:20:47;;;;;;;4.57;4.05;;;;;;;;;;5122546;27;20023;-68
2022/04/18 06:23:14;;;;;;;4.28;3.78;;;;;;;;;;5118985;27;20254;-68
2022/04/18 06:25:39;;;;;;;5.95;4.20;;;;;;;;;;5123916;27;20450;-68
2022/04/18 06:28:04;;;;;;;4.93;4.25;;;;;;;;;;5112579;27;20180;-68
2022/04/18 06:30:30;;;;;;;5.25;3.45;;;;;;;;;;5123646;27;20329;-68
2022/04/18 06:32:55;;;;;;;4.47;3.88;;;;;;;;;;5116325;27;20011;-69
2022/04/18 06:35:21;;;;;;;4.90;4.13;;;;;;;;;;5084999;28;20031;-69
2022/04/18 06:37:46;;;;;;;4.63;4.00;;;;;;;;;;5083184;28;20028;-77
2022/04/18 06:40:11;;;;;;;4.97;3.40;;;;;;;;;;5119316;28;20031;-77
2022/04/18 06:42:37;;;;;;;4.93;3.95;;;;;;;;;;5118357;28;20020;-76
2022/04/18 06:45:02;;;;;;;4.55;4.15;;;;;;;;;;5120108;28;20515;-76
2022/04/18 06:47:27;;;;;;;4.90;4.10;;;;;;;;;;5115565;28;20142;-76
2022/04/18 06:49:53;;;;;;;4.72;3.67;;;;;;;;;;5106358;28;20517;-76
2022/04/18 06:52:19;;;;;;;5.57;4.18;;;;;;;;;;5099099;27;20049;-76
2022/04/18 06:54:44;;;;;;;6.07;4.53;;;;;;;;;;5125171;27;20497;-75
2022/04/18 06:57:11;;;;;;;5.78;4.25;;;;;;;;;;5122290;27;20209;-77
2022/04/18 06:59:37;;;;;;;4.53;4.13;;;;;;;;;;5123915;27;20110;-77
2022/04/18 07:02:02;;;;;;;4.65;4.25;;;;;;;;;;5103195;28;20111;-76
2022/04/18 07:04:28;;;;;;;4.28;3.88;;;;;;;;;;5105258;28;20036;-76
2022/04/18 07:06:54;;;;;;;5.15;4.00;;;;;;;;;;5103880;28;20449;-74
2022/04/18 07:09:19;;;;;;;4.45;4.05;;;;;;;;;;5088624;28;20505;-76
2022/04/18 07:11:45;;;;;;;4.07;3.33;;;;;;;;;;5103618;28;20422;-77
2022/04/18 07:14:14;;;;;;;4.43;3.78;;;;;;;;;;5090285;27;20035;-76
2022/04/18 07:16:40;;;;;;;4.32;3.92;;;;;;;;;;5124698;27;20084;-75
2022/04/18 07:19:05;;;;;;;5.20;3.30;;;;;;;;;;5106208;27;20095;-74
2022/04/18 07:21:31;;;;;;;5.13;3.75;;;;;;;;;;5102651;27;20474;-74
2022/04/18 07:23:56;;;;;;;4.78;3.58;;;;;;;;;;5106709;27;20131;-75
2022/04/18 07:26:21;;;;;;;3.80;3.42;;;;;;;;;;5106587;27;20030;-74
2022/04/18 07:28:47;;;;;;;3.88;3.47;;;;;;;;;;5124063;27;20023;-77
2022/04/18 07:31:13;;;;;;;3.70;3.00;;;;;;;;;;5118940;27;20215;-77
2022/04/18 07:33:38;;;;;;;4.95;2.97;;;;;;;;;;5100354;28;20099;-74
2022/04/18 07:36:04;;;;;;;5.95;3.53;;;;;;;;;;5115625;27;20023;-75
2022/04/18 07:41:14;;;;;;;4.82;3.03;;;;;;;;;;5122237;27;20373;-74
2022/04/18 07:43:39;;;;;;;5.25;3.40;;;;;;;;;;5118297;27;20074;-74
2022/04/18 07:46:04;;;;;;;5.50;3.15;;;;;;;;;;5085485;28;20120;-76
2022/04/18 07:48:30;;;;;;;6.63;3.60;;;;;;;;;;5100646;28;20046;-76
2022/04/18 07:53:39;;;;;;;4.50;3.70;;;;;;;;;;5122980;27;20168;-74
2022/04/18 07:56:05;;;;;;;3.35;3.05;;;;;;;;;;5109633;27;20099;-73
2022/04/18 07:58:31;;;;;;;6.13;3.00;;;;;;;;;;5108355;27;20026;-75
2022/04/18 08:00:56;;;;;;;3.33;2.92;;;;;;;;;;5120147;27;20016;-75
2022/04/18 08:03:22;;;;;;;4.32;2.50;;;;;;;;;;5098089;27;20070;-75
2022/04/18 08:05:47;;;;;;;3.78;3.08;;;;;;;;;;5103914;28;20012;-74
2022/04/18 08:08:13;;;;;;;4.05;3.38;;;;;;;;;;5099949;28;20019;-75
2022/04/18 08:10:38;;;;;;;3.17;2.88;;;;;;;;;;5106342;27;20113;-75
2022/04/18 08:13:04;;;;;;;3.40;3.10;;;;;;;;;;5095518;27;20026;-74
2022/04/18 08:15:29;;;;;;;5.20;2.75;;;;;;;;;;5105853;28;20088;-76
2022/04/18 08:17:54;;;;;;;3.75;3.00;;;;;;;;;;5104773;27;20491;-75
2022/04/18 08:20:20;;;;;;;4.85;3.15;;;;;;;;;;5124357;27;20349;-75
2022/04/18 08:22:45;;;;;;;4.32;2.63;;;;;;;;;;5105353;27;20046;-76
2022/04/18 08:25:11;;;;;;;3.58;2.85;;;;;;;;;;5114640;27;20023;-75
2022/04/18 08:27:36;;;;;;;4.63;2.92;;;;;;;;;;5117671;27;20030;-76
2022/04/18 08:30:02;;;;;;;3.20;2.65;;;;;;;;;;5104090;27;20027;-75
2022/04/18 08:32:27;;;;;;;3.33;3.00;;;;;;;;;;5100280;28;20035;-76
2022/04/18 08:34:54;;;;;;;6.78;3.17;;;;;;;;;;5105293;28;20323;-75
2022/04/18 08:37:19;;;;;;;3.00;2.78;;;;;;;;;;5101090;28;20218;-75
2022/04/18 08:39:45;;;;;;;2.80;2.53;;;;;;;;;;5108974;28;20030;-77
2022/04/18 08:42:11;;;;;;;3.53;2.90;;;;;;;;;;5086978;28;20333;-76
2022/04/18 08:44:37;;;;;;;3.05;2.85;;;;;;;;;;5105989;28;20118;-75
2022/04/18 08:47:03;;;;;;;2.67;2.42;;;;;;;;;;5104610;27;20438;-76
2022/04/18 08:54:58;;;;;;;3.95;3.33;;;;;;;;;;5127378;27;20026;-73
2022/04/18 08:57:24;;;;;;;4.53;2.92;;;;;;;;;;5107008;27;20040;-75
2022/04/18 08:59:50;;;;;;;3.25;2.95;;;;;;;;;;5088772;28;20027;-77
2022/04/18 09:02:16;;;;;;;4.38;3.17;;;;;;;;;;5099206;28;20496;-76
2022/04/18 09:04:41;;;;;;;3.00;2.70;;;;;;;;;;5124463;27;20047;-76
2022/04/18 09:07:10;;;;;;;3.58;3.05;;;;;;;;;;5121867;27;20023;-75
2022/04/18 09:09:36;;;;;;;3.28;2.70;;;;;;;;;;5106476;27;20175;-75
2022/04/18 09:12:02;;;;;;;3.55;2.85;;;;;;;;;;5122308;27;20035;-75
2022/04/18 09:14:27;;;;;;;3.97;3.17;;;;;;;;;;5086767;27;20034;-76
2022/04/18 09:16:53;;;;;;;2.67;2.42;;;;;;;;;;5121787;27;20805;-76
2022/04/18 09:19:19;;;;;;;3.92;3.03;;;;;;;;;;5105032;27;20117;-76
2022/04/18 09:21:57;;;;;;;4.30;2.67;;;;;;;;;;5121437;27;20035;-77
2022/04/18 09:24:33;;;;;;;3.00;2.80;;;;;;;;;;5105326;27;20046;-76
2022/04/18 09:27:24;;;;;;;4.65;3.08;;;;;;;;;;5103380;27;20456;-74
2022/04/18 09:30:03;;;;;;;3.28;2.95;;;;;;;;;;5115299;27;20049;-77
2022/04/18 09:32:29;;;;;;;5.97;3.20;;;;;;;;;;5121380;27;20101;-75
2022/04/18 09:35:02;;;;;;;3.10;2.80;;;;;;;;;;5109249;27;20457;-78
2022/04/18 09:37:27;;;;;;;;;;;;;;;;;;5136860;27;20366;-75
2022/04/18 09:39:53;;;;;;;5.25;3.25;;;;;;;;;;5126019;27;20015;-77
2022/04/18 09:42:20;;;;;;;4.18;2.60;;;;;;;;;;5141484;27;20045;-75
2022/04/18 09:44:45;;;;;;;4.72;2.70;;;;;;;;;;5123431;27;20073;-76
2022/04/18 09:47:17;;;;;;;3.20;2.63;;;;;;;;;;5120915;27;20493;-76
2022/04/18 09:49:43;;;;;;;3.10;2.70;;;;;;;;;;5144587;27;20018;-75
2022/04/18 09:52:13;;;;;;;2.72;2.53;;;;;;;;;;5123884;27;20392;-76
2022/04/18 09:54:55;;;;;;;4.35;2.50;;;;;;;;;;5145020;27;20260;-79
2022/04/18 09:57:23;;;;;;;2.67;2.38;;;;;;;;;;5142341;27;20050;-74
2022/04/18 09:59:49;;;;;;;3.55;2.88;;;;;;;;;;5107221;27;20023;-76
2022/04/18 10:02:14;;;;;;;3.30;2.38;;;;;;;;;;5139306;27;20385;-76
2022/04/18 10:04:40;;;;;;;3.42;2.50;;;;;;;;;;5145383;27;20457;-76
2022/04/18 10:07:06;;;;;;;3.72;2.72;;;;;;;;;;5144447;27;20010;-76
2022/04/18 10:09:32;;;;;;;4.85;2.70;;;;;;;;;;5124500;27;20039;-74
2022/04/18 10:11:57;;;;;;;2.60;2.40;;;;;;;;;;5121091;27;20481;-74
2022/04/18 10:14:23;;;;;;;2.88;2.58;;;;;;;;;;5131369;27;20450;-74
2022/04/18 10:16:48;;;;;;;2.53;2.33;;;;;;;;;;5102680;27;20465;-75
2022/04/18 10:19:33;;;;;;;3.65;2.78;;;;;;;;;;5109032;27;20292;-74
2022/04/18 10:22:07;;;;;;;5.82;2.50;;;;;;;;;;5141188;27;20019;-76
2022/04/18 10:24:48;;;;;;;3.83;2.90;;;;;;;;;;5123978;27;20109;-73
2022/04/18 10:27:28;;;;;;;4.03;3.63;;;;;;;;;;5139212;27;20441;-75
2022/04/18 10:29:54;;;;;;;3.92;3.47;;;;;;;;;;5124284;27;20027;-75
2022/04/18 10:32:24;;;;;;;3.67;3.38;;;;;;;;;;5120357;27;20488;-76
2022/04/18 10:34:56;;;;;;;4.15;3.17;;;;;;;;;;5144279;27;20106;-75
2022/04/18 10:37:24;;;;;;;5.53;3.80;;;;;;;;;;5141431;27;20018;-73
2022/04/18 10:40:03;;;;;;;4.43;3.65;;;;;;;;;;5139126;27;20023;-75
2022/04/18 10:42:31;;;;;;;5.88;3.40;;;;;;;;;;5126981;27;20136;-72
2022/04/18 10:44:57;;;;;;;3.78;3.47;;;;;;;;;;5112657;27;20358;-75
2022/04/18 10:47:22;;;;;;;4.60;3.50;;;;;;;;;;5135601;27;20021;-74
2022/04/18 10:50:07;;;;;;;3.50;3.15;;;;;;;;;;5117392;27;20019;-75
2022/04/18 10:52:32;;;;;;;4.28;3.50;;;;;;;;;;5143124;27;20341;-75
2022/04/18 10:55:01;;;;;;;4.55;3.58;;;;;;;;;;5120739;27;20055;-73
2022/04/18 10:57:27;;;;;;;4.57;3.28;;;;;;;;;;5101258;27;20485;-73
2022/04/18 10:59:53;;;;;;;5.20;3.22;;;;;;;;;;5100931;27;20041;-74
2022/04/18 11:02:38;;;;;;;4.03;3.10;;;;;;;;;;5121257;27;20467;-75
2022/04/18 11:05:04;;;;;;;5.47;3.42;;;;;;;;;;5100785;27;20039;-75
2022/04/18 11:07:39;;;;;;;3.97;3.28;;;;;;;;;;5098411;27;20027;-75
2022/04/18 11:10:20;;;;;;;4.15;3.05;;;;;;;;;;5110895;27;20126;-75
2022/04/18 11:12:45;;;;;;;4.30;3.10;;;;;;;;;;5083717;27;20533;-76
2022/04/18 11:15:11;;;;;;;3.15;2.70;;;;;;;;;;5132508;27;20034;-75
2022/04/18 11:17:38;;;;;;;3.08;2.78;;;;;;;;;;5110351;27;20413;-78
2022/04/18 11:20:22;;;;;;;4.57;3.40;;;;;;;;;;5106058;27;20514;-77
2022/04/18 11:23:06;;;;;;;3.38;2.90;;;;;;;;;;5137985;27;20123;-77
2022/04/18 11:25:48;;;;;;;3.25;2.88;;;;;;;;;;5120065;27;20053;-77
2022/04/18 11:28:15;;;;;;;3.30;3.00;;;;;;;;;;5118535;27;20030;-76
2022/04/18 11:30:40;;;;;;;4.45;2.85;;;;;;;;;;5100101;27;20530;-77
2022/04/18 11:33:07;;;;;;;3.67;2.75;;;;;;;;;;5121563;27;20081;-76
2022/04/18 11:35:33;;;;;;;2.72;2.30;;;;;;;;;;5120099;27;20538;-76
2022/04/18 11:38:08;;;;;;;3.20;2.90;;;;;;;;;;5141181;27;20027;-77
2022/04/18 11:40:37;;;;;;;2.67;2.30;;;;;;;;;;5144343;27;20019;-77
2022/04/18 11:43:09;;;;;;;2.38;2.17;;;;;;;;;;5126283;27;20094;-76
2022/04/18 11:45:35;;;;;;;2.97;2.20;;;;;;;;;;5136969;27;20018;-78
2022/04/18 11:48:03;;;;;;;3.65;2.13;;;;;;;;;;5145854;27;20049;-76
2022/04/18 11:50:29;;;;;;;2.20;2.00;;;;;;;;;;5107039;27;20052;-78
2022/04/18 11:53:01;;;;;;;2.72;2.28;;;;;;;;;;5143449;27;20053;-77
2022/04/18 11:55:27;;;;;;;2.50;2.30;;;;;;;;;;5118900;27;20034;-78
2022/04/18 11:57:52;;;;;;;2.45;2.10;;;;;;;;;;5123162;27;20027;-77
2022/04/18 12:08:03;;;;;;;3.03;2.20;;;;;;;;;;5081181;28;20454;-76
2022/04/18 12:10:33;;;;;;;2.38;2.17;;;;;;;;;;5082198;28;20017;-77
2022/04/18 12:13:03;;;;;;;4.15;2.45;;;;;;;;;;5071702;28;20039;-75
2022/04/18 12:15:28;;;;;;;2.42;2.22;;;;;;;;;;5059217;28;20013;-78
2022/04/18 12:17:55;;;;;;;2.20;2.00;;;;;;;;;;5066458;28;20096;-79
2022/04/18 12:20:22;;;;;;;4.97;2.60;;;;;;;;;;5070934;28;20118;-75
2022/04/18 12:23:02;;;;;;;3.08;2.50;;;;;;;;;;5039818;28;20463;-75
2022/04/18 12:25:30;;;;;;;3.70;2.50;;;;;;;;;;5058946;28;20489;-76
2022/04/18 12:27:56;;;;;;;3.00;2.70;;;;;;;;;;5055350;28;20370;-76
2022/04/18 12:30:22;;;;;;;3.08;2.78;;;;;;;;;;5054488;28;20447;-78
2022/04/18 12:32:48;;;;;;;2.10;1.90;;;;;;;;;;5045477;28;20041;-76
2022/04/18 12:35:14;;;;;;;2.95;2.30;;;;;;;;;;5076938;28;20027;-78
2022/04/18 12:37:46;;;;;;;2.70;2.35;;;;;;;;;;5072007;28;20440;-78
2022/04/18 12:40:12;;;;;;;3.30;3.00;;;;;;;;;;5059726;28;20017;-77
2022/04/18 12:42:38;;;;;;;3.05;2.30;;;;;;;;;;5052447;28;20281;-76
2022/04/18 12:45:03;;;;;;;3.45;3.00;;;;;;;;;;5078182;28;20443;-76
2022/04/18 12:47:30;;;;;;;3.20;2.90;;;;;;;;;;5070922;28;20029;-77
2022/04/18 12:50:05;;;;;;;3.40;3.10;;;;;;;;;;5056835;28;20033;-77
2022/04/18 12:52:31;;;;;;;3.03;2.72;;;;;;;;;;5067697;28;20034;-76
2022/04/18 12:55:06;;;;;;;2.92;2.58;;;;;;;;;;5079121;28;20024;-76
2022/04/18 12:57:31;;;;;;;2.90;2.60;;;;;;;;;;5044634;28;20021;-75
2022/04/18 13:00:11;;;;;;;3.65;3.22;;;;;;;;;;5056539;28;20360;-77
2022/04/18 13:02:37;;;;;;;3.90;3.10;;;;;;;;;;5061080;28;20013;-76
2022/04/18 13:05:03;;;;;;;3.40;3.08;;;;;;;;;;5057278;28;20067;-76
2022/04/18 13:07:29;;;;;;;5.18;3.30;;;;;;;;;;5038432;28;20017;-77
2022/04/18 13:10:02;;;;;;;4.97;3.17;;;;;;;;;;5048111;28;20020;-77
2022/04/18 13:12:30;;;;;;;3.28;2.97;;;;;;;;;;5060656;28;20048;-78
2022/04/18 13:15:02;;;;;;;3.50;3.20;;;;;;;;;;5043781;28;20093;-76
2022/04/18 13:17:28;;;;;;;3.28;2.97;;;;;;;;;;5062224;28;20017;-78
2022/04/18 13:19:53;;;;;;;4.15;3.40;;;;;;;;;;5063670;28;20028;-78
2022/04/18 13:22:18;;;;;;;3.90;3.55;;;;;;;;;;5065890;28;20065;-78
2022/04/18 13:24:43;;;;;;;3.33;3.03;;;;;;;;;;5063276;28;20413;-76
2022/04/18 13:27:35;;;;;;;5.75;5.18;;;;;;;;;;5060484;28;20558;-76
2022/04/18 13:30:00;;;;;;;6.70;4.90;;;;;;;;;;5043324;28;20043;-78
2022/04/18 13:32:26;;;;;;;5.78;5.28;;;;;;;;;;5046736;28;20025;-76
2022/04/18 13:34:51;;;;;;;6.30;3.93;;;;;;;;;;5047024;28;20068;-78
2022/04/18 13:37:16;;;;;;;5.93;5.43;;;;;;;;;;5049969;28;20813;-77
2022/04/18 13:39:47;;;;;;;6.38;5.78;;;;;;;;;;5024558;28;20350;-78
2022/04/18 13:42:13;;;;;;;6.03;5.43;;;;;;;;;;5052280;28;20024;-79
2022/04/18 13:44:38;;;;;;;5.90;5.30;;;;;;;;;;5058796;28;20082;-78
2022/04/18 13:47:03;;;;;;;5.72;5.13;;;;;;;;;;5043697;28;20084;-77
2022/04/18 13:49:28;;;;;;;5.70;5.20;;;;;;;;;;5040183;28;20042;-78
2022/04/18 13:51:54;;;;;;;6.17;4.93;;;;;;;;;;5044698;28;20060;-77
2022/04/18 13:54:19;;;;;;;6.90;5.72;;;;;;;;;;5042922;28;20281;-78
2022/04/18 13:56:46;;;;;;;5.40;5.00;;;;;;;;;;5043537;28;20330;-78
2022/04/18 13:59:11;;;;;;;5.95;5.32;;;;;;;;;;5043605;28;20025;-78
2022/04/18 14:01:36;;;;;;;5.30;4.80;;;;;;;;;;5044789;28;20024;-79
2022/04/18 14:04:02;;;;;;;5.60;5.00;;;;;;;;;;5059929;28;20498;-77
2022/04/18 14:06:29;;;;;;;5.07;4.53;;;;;;;;;;5042783;28;20087;-79
2022/04/18 14:08:55;;;;;;;6.18;5.57;;;;;;;;;;5026841;28;20025;-79
2022/04/18 14:11:20;;;;;;;5.68;5.10;;;;;;;;;;5026203;28;20541;-76
2022/04/18 14:13:47;;;;;;;5.93;5.35;;;;;;;;;;5064251;28;20830;-77
2022/04/18 14:21:57;;;;;;;5.60;4.95;;;;;;;;;;5062086;28;20017;-79
2022/04/18 14:24:22;;;;;;;5.80;5.20;;;;;;;;;;5045877;28;20040;-79
2022/04/18 14:26:48;;;;;;;5.85;5.28;;;;;;;;;;5047090;28;20431;-79
2022/04/18 14:29:13;;;;;;;8.20;6.10;;;;;;;;;;5035700;28;20043;-79
2022/04/18 14:31:39;;;;;;;7.90;6.80;;;;;;;;;;5042975;28;20146;-80
2022/04/18 14:34:04;;;;;;;7.18;6.57;;;;;;;;;;5046369;28;20514;-81
2022/04/18 14:36:30;;;;;;;8.13;7.18;;;;;;;;;;5066367;28;20028;-81
2022/04/18 14:38:55;;;;;;;8.35;7.55;;;;;;;;;;5049110;28;20027;-81
2022/04/18 14:41:21;;;;;;;8.00;7.20;;;;;;;;;;5061157;28;20392;-79
2022/04/18 14:43:47;;;;;;;8.45;7.65;;;;;;;;;;5047729;28;20337;-80
2022/04/18 14:46:13;;;;;;;10.35;8.48;;;;;;;;;;5057648;28;20092;-81
2022/04/18 14:48:38;;;;;;;8.27;7.45;;;;;;;;;;5045935;28;20115;-79
2022/04/18 14:51:04;;;;;;;8.25;7.38;;;;;;;;;;5048285;28;20502;-79
2022/04/18 14:53:30;;;;;;;7.90;7.10;;;;;;;;;;5046333;28;20029;-77
2022/04/18 14:55:55;;;;;;;7.82;7.10;;;;;;;;;;5050103;28;20447;-79
2022/04/18 14:58:21;;;;;;;7.75;6.95;;;;;;;;;;5063874;28;20443;-78
2022/04/18 15:00:46;;;;;;;7.82;7.03;;;;;;;;;;5049138;28;20517;-79
2022/04/18 15:03:12;;;;;;;7.78;7.00;;;;;;;;;;5054924;28;20177;-81
2022/04/18 15:05:37;;;;;;;7.95;7.13;;;;;;;;;;5055357;28;20131;-81
2022/04/18 15:08:03;;;;;;;7.93;6.82;;;;;;;;;;5053333;28;20510;-79